sensor_id;sensor_type;location;lat;lon;timestamp;P1;durP1;ratioP1;P2;durP2;ratioP2
52318;SDS011;38258;51.148;14.068;2023-06-14T00:00:23;5.70;;;4.30;;
52318;SDS011;38258;51.148;14.068;2023-06-14T00:02:50;5.80;;;4.05;;
52318;SDS011;38258;51.148;14.068;2023-06-14T00:05:18;8.00;;;4.00;;
52318;SDS011;38258;51.148;14.068;2023-06-14T00:07:44;8.00;;;4.20;;
52318;SDS011;38258;51.148;14.068;2023-06-14T00:10:13;5.53;;;4.30;;
52318;SDS011;38258;51.148;14.068;2023-06-14T00:12:40;5.90;;;4.35;;
52318;SDS011;38258;51.148;14.068;2023-06-14T00:15:07;6.20;;;4.25;;
52318;SDS011;38258;51.148;14.068;2023-06-14T00:17:35;7.97;;;4.60;;
52318;SDS011;38258;51.148;14.068;2023-06-14T00:20:04;6.28;;;4.57;;
52318;SDS011;38258;51.148;14.068;2023-06-14T00:22:34;4.82;;;4.10;;
52318;SDS011;38258;51.148;14.068;2023-06-14T00:25:02;5.97;;;4.22;;
52318;SDS011;38258;51.148;14.068;2023-06-14T00:27:29;6.13;;;4.43;;
52318;SDS011;38258;51.148;14.068;2023-06-14T00:29:55;6.00;;;4.35;;
52318;SDS011;38258;51.148;14.068;2023-06-14T00:32:25;6.63;;;4.50;;
52318;SDS011;38258;51.148;14.068;2023-06-14T00:34:55;7.60;;;4.38;;
52318;SDS011;38258;51.148;14.068;2023-06-14T00:37:21;6.50;;;4.95;;
52318;SDS011;38258;51.148;14.068;2023-06-14T00:39:49;5.80;;;4.63;;
52318;SDS011;38258;51.148;14.068;2023-06-14T00:42:24;6.57;;;4.47;;
52318;SDS011;38258;51.148;14.068;2023-06-14T00:44:51;6.23;;;4.57;;
52318;SDS011;38258;51.148;14.068;2023-06-14T00:47:18;9.57;;;5.00;;
52318;SDS011;38258;51.148;14.068;2023-06-14T00:49:46;6.20;;;4.35;;
52318;SDS011;38258;51.148;14.068;2023-06-14T00:52:14;5.85;;;4.55;;
52318;SDS011;38258;51.148;14.068;2023-06-14T00:54:42;6.43;;;5.18;;
52318;SDS011;38258;51.148;14.068;2023-06-14T00:57:10;6.50;;;4.72;;
52318;SDS011;38258;51.148;14.068;2023-06-14T00:59:41;6.07;;;4.82;;
52318;SDS011;38258;51.148;14.068;2023-06-14T01:02:10;5.70;;;4.18;;
52318;SDS011;38258;51.148;14.068;2023-06-14T01:04:37;6.63;;;4.50;;
52318;SDS011;38258;51.148;14.068;2023-06-14T01:07:07;6.53;;;4.60;;
52318;SDS011;38258;51.148;14.068;2023-06-14T01:09:46;5.57;;;4.60;;
52318;SDS011;38258;51.148;14.068;2023-06-14T01:12:24;6.70;;;5.15;;
52318;SDS011;38258;51.148;14.068;2023-06-14T01:15:00;6.68;;;5.28;;
52318;SDS011;38258;51.148;14.068;2023-06-14T01:17:28;6.60;;;5.00;;
52318;SDS011;38258;51.148;14.068;2023-06-14T01:19:58;6.20;;;4.88;;
52318;SDS011;38258;51.148;14.068;2023-06-14T01:22:25;6.13;;;4.80;;
52318;SDS011;38258;51.148;14.068;2023-06-14T01:24:55;7.47;;;5.10;;
52318;SDS011;38258;51.148;14.068;2023-06-14T01:27:23;6.28;;;5.00;;
52318;SDS011;38258;51.148;14.068;2023-06-14T01:29:54;6.72;;;5.13;;
52318;SDS011;38258;51.148;14.068;2023-06-14T01:32:23;6.70;;;5.43;;
52318;SDS011;38258;51.148;14.068;2023-06-14T01:34:51;6.65;;;5.53;;
52318;SDS011;38258;51.148;14.068;2023-06-14T01:37:18;7.65;;;5.70;;
52318;SDS011;38258;51.148;14.068;2023-06-14T01:39:46;6.43;;;5.32;;
52318;SDS011;38258;51.148;14.068;2023-06-14T01:42:19;8.55;;;5.25;;
52318;SDS011;38258;51.148;14.068;2023-06-14T01:44:47;8.13;;;5.50;;
52318;SDS011;38258;51.148;14.068;2023-06-14T01:47:14;7.50;;;5.40;;
52318;SDS011;38258;51.148;14.068;2023-06-14T01:49:41;6.35;;;4.82;;
52318;SDS011;38258;51.148;14.068;2023-06-14T01:52:08;6.43;;;5.45;;
52318;SDS011;38258;51.148;14.068;2023-06-14T01:54:36;7.97;;;5.57;;
52318;SDS011;38258;51.148;14.068;2023-06-14T01:57:07;7.80;;;5.60;;
52318;SDS011;38258;51.148;14.068;2023-06-14T01:59:38;7.95;;;5.57;;
52318;SDS011;38258;51.148;14.068;2023-06-14T02:02:04;7.82;;;5.60;;
52318;SDS011;38258;51.148;14.068;2023-06-14T02:04:31;7.72;;;5.90;;
52318;SDS011;38258;51.148;14.068;2023-06-14T02:06:58;8.50;;;5.78;;
52318;SDS011;38258;51.148;14.068;2023-06-14T02:09:25;9.07;;;6.15;;
52318;SDS011;38258;51.148;14.068;2023-06-14T02:11:53;6.88;;;5.38;;
52318;SDS011;38258;51.148;14.068;2023-06-14T02:14:20;8.15;;;5.60;;
52318;SDS011;38258;51.148;14.068;2023-06-14T02:16:49;7.80;;;5.85;;
52318;SDS011;38258;51.148;14.068;2023-06-14T02:19:16;7.18;;;6.07;;
52318;SDS011;38258;51.148;14.068;2023-06-14T02:21:43;7.88;;;5.75;;
52318;SDS011;38258;51.148;14.068;2023-06-14T02:24:11;8.27;;;5.75;;
52318;SDS011;38258;51.148;14.068;2023-06-14T02:26:38;7.80;;;5.82;;
52318;SDS011;38258;51.148;14.068;2023-06-14T02:29:06;7.45;;;6.00;;
52318;SDS011;38258;51.148;14.068;2023-06-14T02:31:35;8.48;;;5.95;;
52318;SDS011;38258;51.148;14.068;2023-06-14T02:34:03;7.80;;;5.97;;
52318;SDS011;38258;51.148;14.068;2023-06-14T02:36:30;8.38;;;6.13;;
52318;SDS011;38258;51.148;14.068;2023-06-14T02:38:59;7.18;;;6.10;;
52318;SDS011;38258;51.148;14.068;2023-06-14T02:41:26;8.50;;;6.35;;
52318;SDS011;38258;51.148;14.068;2023-06-14T02:43:53;8.27;;;6.00;;
52318;SDS011;38258;51.148;14.068;2023-06-14T02:46:21;9.60;;;6.00;;
52318;SDS011;38258;51.148;14.068;2023-06-14T02:48:49;7.43;;;5.95;;
52318;SDS011;38258;51.148;14.068;2023-06-14T02:51:17;7.20;;;6.00;;
52318;SDS011;38258;51.148;14.068;2023-06-14T02:53:43;7.60;;;5.65;;
52318;SDS011;38258;51.148;14.068;2023-06-14T02:56:10;9.25;;;6.85;;
52318;SDS011;38258;51.148;14.068;2023-06-14T02:58:39;9.07;;;6.15;;
52318;SDS011;38258;51.148;14.068;2023-06-14T03:01:06;8.55;;;6.10;;
52318;SDS011;38258;51.148;14.068;2023-06-14T03:03:34;9.10;;;6.65;;
52318;SDS011;38258;51.148;14.068;2023-06-14T03:06:01;9.45;;;6.55;;
52318;SDS011;38258;51.148;14.068;2023-06-14T03:08:33;10.43;;;7.93;;
52318;SDS011;38258;51.148;14.068;2023-06-14T03:11:07;8.43;;;6.70;;
52318;SDS011;38258;51.148;14.068;2023-06-14T03:13:35;9.00;;;7.05;;
52318;SDS011;38258;51.148;14.068;2023-06-14T03:16:04;9.43;;;7.30;;
52318;SDS011;38258;51.148;14.068;2023-06-14T03:18:35;9.98;;;7.32;;
52318;SDS011;38258;51.148;14.068;2023-06-14T03:21:04;10.73;;;7.45;;
52318;SDS011;38258;51.148;14.068;2023-06-14T03:23:33;9.40;;;7.10;;
52318;SDS011;38258;51.148;14.068;2023-06-14T03:26:02;8.13;;;6.72;;
52318;SDS011;38258;51.148;14.068;2023-06-14T03:28:29;9.82;;;7.22;;
52318;SDS011;38258;51.148;14.068;2023-06-14T03:30:57;9.52;;;6.60;;
52318;SDS011;38258;51.148;14.068;2023-06-14T03:33:24;9.48;;;7.30;;
52318;SDS011;38258;51.148;14.068;2023-06-14T03:35:51;9.38;;;6.72;;
52318;SDS011;38258;51.148;14.068;2023-06-14T03:38:18;9.85;;;6.65;;
52318;SDS011;38258;51.148;14.068;2023-06-14T03:40:46;9.13;;;6.80;;
52318;SDS011;38258;51.148;14.068;2023-06-14T03:43:13;9.68;;;6.70;;
52318;SDS011;38258;51.148;14.068;2023-06-14T03:45:41;9.10;;;6.72;;
52318;SDS011;38258;51.148;14.068;2023-06-14T03:48:08;9.25;;;7.07;;
52318;SDS011;38258;51.148;14.068;2023-06-14T03:50:36;7.82;;;6.25;;
52318;SDS011;38258;51.148;14.068;2023-06-14T03:53:06;9.35;;;6.82;;
52318;SDS011;38258;51.148;14.068;2023-06-14T03:55:34;9.20;;;6.95;;
52318;SDS011;38258;51.148;14.068;2023-06-14T03:58:04;8.68;;;6.47;;
52318;SDS011;38258;51.148;14.068;2023-06-14T04:00:31;9.18;;;6.75;;
52318;SDS011;38258;51.148;14.068;2023-06-14T04:02:58;9.35;;;7.07;;
52318;SDS011;38258;51.148;14.068;2023-06-14T04:05:25;8.57;;;7.22;;
52318;SDS011;38258;51.148;14.068;2023-06-14T04:07:54;9.52;;;6.35;;
52318;SDS011;38258;51.148;14.068;2023-06-14T04:10:21;9.38;;;6.63;;
52318;SDS011;38258;51.148;14.068;2023-06-14T04:12:48;9.45;;;7.03;;
52318;SDS011;38258;51.148;14.068;2023-06-14T04:15:18;12.73;;;7.28;;
52318;SDS011;38258;51.148;14.068;2023-06-14T04:17:44;10.23;;;7.15;;
52318;SDS011;38258;51.148;14.068;2023-06-14T04:20:11;10.20;;;6.88;;
52318;SDS011;38258;51.148;14.068;2023-06-14T04:22:38;7.90;;;6.30;;
52318;SDS011;38258;51.148;14.068;2023-06-14T04:25:06;9.32;;;6.65;;
52318;SDS011;38258;51.148;14.068;2023-06-14T04:27:34;8.55;;;6.43;;
52318;SDS011;38258;51.148;14.068;2023-06-14T04:30:02;10.35;;;7.43;;
52318;SDS011;38258;51.148;14.068;2023-06-14T04:32:37;10.35;;;7.25;;
52318;SDS011;38258;51.148;14.068;2023-06-14T04:35:05;10.95;;;7.20;;
52318;SDS011;38258;51.148;14.068;2023-06-14T04:37:33;10.75;;;7.45;;
52318;SDS011;38258;51.148;14.068;2023-06-14T04:40:06;8.98;;;6.82;;
52318;SDS011;38258;51.148;14.068;2023-06-14T04:42:35;11.13;;;7.63;;
52318;SDS011;38258;51.148;14.068;2023-06-14T04:45:06;9.60;;;7.25;;
52318;SDS011;38258;51.148;14.068;2023-06-14T04:47:37;11.77;;;7.32;;
52318;SDS011;38258;51.148;14.068;2023-06-14T04:50:06;8.85;;;6.53;;
52318;SDS011;38258;51.148;14.068;2023-06-14T04:52:33;9.10;;;7.25;;
52318;SDS011;38258;51.148;14.068;2023-06-14T04:55:01;9.05;;;7.00;;
52318;SDS011;38258;51.148;14.068;2023-06-14T04:57:28;9.80;;;7.22;;
52318;SDS011;38258;51.148;14.068;2023-06-14T04:59:58;8.90;;;7.25;;
52318;SDS011;38258;51.148;14.068;2023-06-14T05:02:28;9.77;;;7.50;;
52318;SDS011;38258;51.148;14.068;2023-06-14T05:04:57;9.70;;;6.82;;
52318;SDS011;38258;51.148;14.068;2023-06-14T05:07:27;8.13;;;7.00;;
52318;SDS011;38258;51.148;14.068;2023-06-14T05:09:53;9.23;;;7.28;;
52318;SDS011;38258;51.148;14.068;2023-06-14T05:12:20;9.50;;;7.15;;
52318;SDS011;38258;51.148;14.068;2023-06-14T05:14:48;10.52;;;7.13;;
52318;SDS011;38258;51.148;14.068;2023-06-14T05:17:21;9.50;;;7.20;;
52318;SDS011;38258;51.148;14.068;2023-06-14T05:19:47;10.48;;;7.40;;
52318;SDS011;38258;51.148;14.068;2023-06-14T05:22:15;9.63;;;7.40;;
52318;SDS011;38258;51.148;14.068;2023-06-14T05:24:42;9.27;;;7.30;;
52318;SDS011;38258;51.148;14.068;2023-06-14T05:27:09;8.85;;;6.80;;
52318;SDS011;38258;51.148;14.068;2023-06-14T05:29:36;11.13;;;7.43;;
52318;SDS011;38258;51.148;14.068;2023-06-14T05:32:03;12.70;;;7.55;;
52318;SDS011;38258;51.148;14.068;2023-06-14T05:34:30;9.85;;;7.35;;
52318;SDS011;38258;51.148;14.068;2023-06-14T05:36:57;9.77;;;7.05;;
52318;SDS011;38258;51.148;14.068;2023-06-14T05:39:25;8.82;;;6.97;;
52318;SDS011;38258;51.148;14.068;2023-06-14T05:41:52;7.88;;;6.80;;
52318;SDS011;38258;51.148;14.068;2023-06-14T05:44:18;9.93;;;7.15;;
52318;SDS011;38258;51.148;14.068;2023-06-14T05:46:45;10.93;;;7.43;;
52318;SDS011;38258;51.148;14.068;2023-06-14T05:49:12;9.70;;;7.45;;
52318;SDS011;38258;51.148;14.068;2023-06-14T05:51:39;10.82;;;7.40;;
52318;SDS011;38258;51.148;14.068;2023-06-14T05:54:05;8.57;;;7.15;;
52318;SDS011;38258;51.148;14.068;2023-06-14T05:56:33;10.25;;;7.43;;
52318;SDS011;38258;51.148;14.068;2023-06-14T05:59:00;8.90;;;6.95;;
52318;SDS011;38258;51.148;14.068;2023-06-14T06:01:27;9.18;;;7.20;;
52318;SDS011;38258;51.148;14.068;2023-06-14T06:03:54;9.52;;;7.10;;
52318;SDS011;38258;51.148;14.068;2023-06-14T06:06:21;8.45;;;7.07;;
52318;SDS011;38258;51.148;14.068;2023-06-14T06:08:48;9.45;;;7.15;;
52318;SDS011;38258;51.148;14.068;2023-06-14T06:11:15;9.43;;;6.90;;
52318;SDS011;38258;51.148;14.068;2023-06-14T06:13:43;8.90;;;6.85;;
52318;SDS011;38258;51.148;14.068;2023-06-14T06:16:09;8.73;;;6.40;;
52318;SDS011;38258;51.148;14.068;2023-06-14T06:18:36;9.05;;;6.45;;
52318;SDS011;38258;51.148;14.068;2023-06-14T06:21:03;7.90;;;6.10;;
52318;SDS011;38258;51.148;14.068;2023-06-14T06:23:30;8.25;;;6.22;;
52318;SDS011;38258;51.148;14.068;2023-06-14T06:25:57;8.23;;;6.03;;
52318;SDS011;38258;51.148;14.068;2023-06-14T06:28:24;8.98;;;6.57;;
52318;SDS011;38258;51.148;14.068;2023-06-14T06:30:52;9.00;;;6.07;;
52318;SDS011;38258;51.148;14.068;2023-06-14T06:33:19;6.88;;;5.80;;
52318;SDS011;38258;51.148;14.068;2023-06-14T06:35:46;8.60;;;5.82;;
52318;SDS011;38258;51.148;14.068;2023-06-14T06:38:13;7.90;;;5.80;;
52318;SDS011;38258;51.148;14.068;2023-06-14T06:40:40;8.02;;;6.40;;
52318;SDS011;38258;51.148;14.068;2023-06-14T06:43:06;8.10;;;5.80;;
52318;SDS011;38258;51.148;14.068;2023-06-14T06:48:08;7.72;;;5.60;;
52318;SDS011;38258;51.148;14.068;2023-06-14T06:50:35;9.55;;;5.35;;
52318;SDS011;38258;51.148;14.068;2023-06-14T06:53:02;6.75;;;5.35;;
52318;SDS011;38258;51.148;14.068;2023-06-14T06:55:29;6.47;;;5.50;;
52318;SDS011;38258;51.148;14.068;2023-06-14T06:57:56;6.57;;;5.38;;
52318;SDS011;38258;51.148;14.068;2023-06-14T07:00:23;6.88;;;5.20;;
52318;SDS011;38258;51.148;14.068;2023-06-14T07:02:49;7.78;;;5.22;;
52318;SDS011;38258;51.148;14.068;2023-06-14T07:05:18;8.43;;;5.57;;
52318;SDS011;38258;51.148;14.068;2023-06-14T07:07:45;7.43;;;5.32;;
52318;SDS011;38258;51.148;14.068;2023-06-14T07:10:12;5.78;;;4.80;;
52318;SDS011;38258;51.148;14.068;2023-06-14T07:12:39;7.93;;;5.53;;
52318;SDS011;38258;51.148;14.068;2023-06-14T07:15:06;5.78;;;4.80;;
52318;SDS011;38258;51.148;14.068;2023-06-14T07:17:34;7.10;;;4.82;;
52318;SDS011;38258;51.148;14.068;2023-06-14T07:20:01;6.10;;;4.65;;
52318;SDS011;38258;51.148;14.068;2023-06-14T07:22:34;5.60;;;4.85;;
52318;SDS011;38258;51.148;14.068;2023-06-14T07:25:01;5.60;;;4.70;;
52318;SDS011;38258;51.148;14.068;2023-06-14T07:27:29;6.47;;;4.97;;
52318;SDS011;38258;51.148;14.068;2023-06-14T07:29:55;9.25;;;5.22;;
52318;SDS011;38258;51.148;14.068;2023-06-14T07:32:23;5.90;;;4.50;;
52318;SDS011;38258;51.148;14.068;2023-06-14T07:34:49;5.40;;;4.25;;
52318;SDS011;38258;51.148;14.068;2023-06-14T07:37:16;6.63;;;4.50;;
52318;SDS011;38258;51.148;14.068;2023-06-14T07:39:44;5.43;;;4.30;;
52318;SDS011;38258;51.148;14.068;2023-06-14T07:42:11;5.70;;;4.55;;
52318;SDS011;38258;51.148;14.068;2023-06-14T07:44:37;6.35;;;4.30;;
52318;SDS011;38258;51.148;14.068;2023-06-14T07:47:04;5.00;;;3.97;;
52318;SDS011;38258;51.148;14.068;2023-06-14T07:49:31;7.18;;;4.25;;
52318;SDS011;38258;51.148;14.068;2023-06-14T07:51:58;5.13;;;4.50;;
52318;SDS011;38258;51.148;14.068;2023-06-14T07:54:25;7.22;;;4.28;;
52318;SDS011;38258;51.148;14.068;2023-06-14T07:56:54;5.60;;;4.40;;
52318;SDS011;38258;51.148;14.068;2023-06-14T07:59:21;6.18;;;4.30;;
52318;SDS011;38258;51.148;14.068;2023-06-14T08:01:47;6.15;;;4.20;;
52318;SDS011;38258;51.148;14.068;2023-06-14T08:04:14;5.88;;;4.03;;
52318;SDS011;38258;51.148;14.068;2023-06-14T08:06:41;5.40;;;4.03;;
52318;SDS011;38258;51.148;14.068;2023-06-14T08:09:09;4.97;;;3.90;;
52318;SDS011;38258;51.148;14.068;2023-06-14T08:11:36;5.70;;;4.05;;
52318;SDS011;38258;51.148;14.068;2023-06-14T08:14:04;6.40;;;3.80;;
52318;SDS011;38258;51.148;14.068;2023-06-14T08:16:31;6.38;;;4.15;;
52318;SDS011;38258;51.148;14.068;2023-06-14T08:18:57;4.93;;;3.92;;
52318;SDS011;38258;51.148;14.068;2023-06-14T08:21:24;5.55;;;4.22;;
52318;SDS011;38258;51.148;14.068;2023-06-14T08:23:54;5.47;;;4.10;;
52318;SDS011;38258;51.148;14.068;2023-06-14T08:26:21;5.38;;;3.70;;
52318;SDS011;38258;51.148;14.068;2023-06-14T08:28:48;5.95;;;3.67;;
52318;SDS011;38258;51.148;14.068;2023-06-14T08:31:16;4.32;;;3.55;;
52318;SDS011;38258;51.148;14.068;2023-06-14T08:33:42;4.57;;;3.58;;
52318;SDS011;38258;51.148;14.068;2023-06-14T08:36:09;5.50;;;3.92;;
52318;SDS011;38258;51.148;14.068;2023-06-14T08:38:37;5.30;;;3.90;;
52318;SDS011;38258;51.148;14.068;2023-06-14T08:41:04;5.18;;;3.60;;
52318;SDS011;38258;51.148;14.068;2023-06-14T08:43:31;6.43;;;3.50;;
52318;SDS011;38258;51.148;14.068;2023-06-14T08:46:00;4.07;;;3.45;;
52318;SDS011;38258;51.148;14.068;2023-06-14T08:48:30;4.25;;;3.58;;
52318;SDS011;38258;51.148;14.068;2023-06-14T08:50:59;4.55;;;3.42;;
52318;SDS011;38258;51.148;14.068;2023-06-14T08:53:27;4.38;;;3.60;;
52318;SDS011;38258;51.148;14.068;2023-06-14T08:55:57;5.47;;;3.38;;
52318;SDS011;38258;51.148;14.068;2023-06-14T08:58:27;5.32;;;3.80;;
52318;SDS011;38258;51.148;14.068;2023-06-14T09:00:55;6.18;;;3.58;;
52318;SDS011;38258;51.148;14.068;2023-06-14T09:03:22;4.35;;;3.20;;
52318;SDS011;38258;51.148;14.068;2023-06-14T09:05:56;3.70;;;3.30;;
52318;SDS011;38258;51.148;14.068;2023-06-14T09:08:24;3.67;;;2.75;;
52318;SDS011;38258;51.148;14.068;2023-06-14T09:10:51;4.93;;;3.20;;
52318;SDS011;38258;51.148;14.068;2023-06-14T09:13:18;4.60;;;3.42;;
52318;SDS011;38258;51.148;14.068;2023-06-14T09:15:45;5.82;;;3.47;;
52318;SDS011;38258;51.148;14.068;2023-06-14T09:18:12;4.07;;;3.20;;
52318;SDS011;38258;51.148;14.068;2023-06-14T09:20:39;4.78;;;3.15;;
52318;SDS011;38258;51.148;14.068;2023-06-14T09:23:08;3.97;;;2.92;;
52318;SDS011;38258;51.148;14.068;2023-06-14T09:25:41;4.35;;;3.00;;
52318;SDS011;38258;51.148;14.068;2023-06-14T09:28:09;4.97;;;3.22;;
52318;SDS011;38258;51.148;14.068;2023-06-14T09:30:36;5.25;;;3.38;;
52318;SDS011;38258;51.148;14.068;2023-06-14T09:33:03;5.20;;;3.40;;
52318;SDS011;38258;51.148;14.068;2023-06-14T09:35:30;4.20;;;3.08;;
52318;SDS011;38258;51.148;14.068;2023-06-14T09:37:57;3.72;;;3.03;;
52318;SDS011;38258;51.148;14.068;2023-06-14T09:40:26;4.65;;;3.35;;
52318;SDS011;38258;51.148;14.068;2023-06-14T09:42:52;3.55;;;2.60;;
52318;SDS011;38258;51.148;14.068;2023-06-14T09:45:20;3.80;;;3.00;;
52318;SDS011;38258;51.148;14.068;2023-06-14T09:47:48;5.40;;;3.00;;
52318;SDS011;38258;51.148;14.068;2023-06-14T09:50:15;5.40;;;3.25;;
52318;SDS011;38258;51.148;14.068;2023-06-14T09:52:42;4.82;;;3.50;;
52318;SDS011;38258;51.148;14.068;2023-06-14T09:55:12;6.50;;;3.50;;
52318;SDS011;38258;51.148;14.068;2023-06-14T09:57:41;4.72;;;3.35;;
52318;SDS011;38258;51.148;14.068;2023-06-14T10:00:10;4.85;;;3.50;;
52318;SDS011;38258;51.148;14.068;2023-06-14T10:02:41;4.60;;;3.30;;
52318;SDS011;38258;51.148;14.068;2023-06-14T10:05:15;4.95;;;3.30;;
52318;SDS011;38258;51.148;14.068;2023-06-14T10:07:48;5.35;;;3.17;;
52318;SDS011;38258;51.148;14.068;2023-06-14T10:10:17;4.15;;;3.45;;
52318;SDS011;38258;51.148;14.068;2023-06-14T10:12:47;4.60;;;3.10;;
52318;SDS011;38258;51.148;14.068;2023-06-14T10:15:15;4.65;;;3.70;;
52318;SDS011;38258;51.148;14.068;2023-06-14T10:17:47;5.57;;;3.60;;
52318;SDS011;38258;51.148;14.068;2023-06-14T10:20:21;5.05;;;3.60;;
52318;SDS011;38258;51.148;14.068;2023-06-14T10:22:56;4.80;;;3.85;;
52318;SDS011;38258;51.148;14.068;2023-06-14T10:25:29;6.50;;;4.05;;
52318;SDS011;38258;51.148;14.068;2023-06-14T10:28:05;6.88;;;4.60;;
52318;SDS011;38258;51.148;14.068;2023-06-14T10:33:30;5.57;;;4.60;;
52318;SDS011;38258;51.148;14.068;2023-06-14T10:36:07;6.20;;;4.40;;
52318;SDS011;38258;51.148;14.068;2023-06-14T10:38:35;5.10;;;4.20;;
52318;SDS011;38258;51.148;14.068;2023-06-14T10:41:02;6.20;;;4.20;;
52318;SDS011;38258;51.148;14.068;2023-06-14T10:43:31;5.88;;;4.30;;
52318;SDS011;38258;51.148;14.068;2023-06-14T10:46:11;5.00;;;4.20;;
52318;SDS011;38258;51.148;14.068;2023-06-14T10:48:42;6.05;;;4.43;;
52318;SDS011;38258;51.148;14.068;2023-06-14T10:51:15;5.80;;;4.60;;
52318;SDS011;38258;51.148;14.068;2023-06-14T10:53:45;5.93;;;4.30;;
52318;SDS011;38258;51.148;14.068;2023-06-14T10:56:22;5.38;;;4.40;;
52318;SDS011;38258;51.148;14.068;2023-06-14T10:58:53;7.63;;;4.30;;
52318;SDS011;38258;51.148;14.068;2023-06-14T11:01:23;5.32;;;4.32;;
52318;SDS011;38258;51.148;14.068;2023-06-14T11:04:04;6.28;;;4.47;;
52318;SDS011;38258;51.148;14.068;2023-06-14T11:06:37;7.20;;;4.50;;
52318;SDS011;38258;51.148;14.068;2023-06-14T11:12:08;6.47;;;4.57;;
52318;SDS011;38258;51.148;14.068;2023-06-14T11:14:38;6.13;;;5.15;;
52318;SDS011;38258;51.148;14.068;2023-06-14T11:17:05;6.07;;;4.50;;
52318;SDS011;38258;51.148;14.068;2023-06-14T11:19:32;8.43;;;4.47;;
52318;SDS011;38258;51.148;14.068;2023-06-14T11:21:58;6.18;;;4.78;;
52318;SDS011;38258;51.148;14.068;2023-06-14T11:24:25;6.05;;;4.82;;
52318;SDS011;38258;51.148;14.068;2023-06-14T11:26:52;6.45;;;4.90;;
52318;SDS011;38258;51.148;14.068;2023-06-14T11:29:19;6.05;;;4.32;;
52318;SDS011;38258;51.148;14.068;2023-06-14T11:31:48;5.40;;;4.10;;
52318;SDS011;38258;51.148;14.068;2023-06-14T11:34:14;9.00;;;4.65;;
52318;SDS011;38258;51.148;14.068;2023-06-14T11:36:41;6.85;;;4.80;;
52318;SDS011;38258;51.148;14.068;2023-06-14T11:39:08;7.57;;;5.30;;
52318;SDS011;38258;51.148;14.068;2023-06-14T11:41:36;9.40;;;4.90;;
52318;SDS011;38258;51.148;14.068;2023-06-14T11:44:04;9.73;;;5.65;;
52318;SDS011;38258;51.148;14.068;2023-06-14T11:46:31;8.20;;;5.10;;
52318;SDS011;38258;51.148;14.068;2023-06-14T11:48:59;9.40;;;5.28;;
52318;SDS011;38258;51.148;14.068;2023-06-14T11:51:28;7.88;;;5.25;;
52318;SDS011;38258;51.148;14.068;2023-06-14T11:53:55;6.82;;;5.30;;
52318;SDS011;38258;51.148;14.068;2023-06-14T11:56:22;11.30;;;5.90;;
52318;SDS011;38258;51.148;14.068;2023-06-14T11:58:49;5.78;;;5.00;;
52318;SDS011;38258;51.148;14.068;2023-06-14T12:01:16;7.25;;;4.85;;
52318;SDS011;38258;51.148;14.068;2023-06-14T12:03:47;7.38;;;5.20;;
52318;SDS011;38258;51.148;14.068;2023-06-14T12:06:16;6.93;;;4.95;;
52318;SDS011;38258;51.148;14.068;2023-06-14T12:08:43;6.95;;;5.55;;
52318;SDS011;38258;51.148;14.068;2023-06-14T12:11:11;8.35;;;5.57;;
52318;SDS011;38258;51.148;14.068;2023-06-14T12:13:38;9.32;;;5.72;;
52318;SDS011;38258;51.148;14.068;2023-06-14T12:16:06;6.50;;;5.30;;
52318;SDS011;38258;51.148;14.068;2023-06-14T12:18:34;7.55;;;5.85;;
52318;SDS011;38258;51.148;14.068;2023-06-14T12:21:02;5.93;;;5.30;;
52318;SDS011;38258;51.148;14.068;2023-06-14T12:23:46;7.78;;;5.30;;
52318;SDS011;38258;51.148;14.068;2023-06-14T12:26:14;8.63;;;5.45;;
52318;SDS011;38258;51.148;14.068;2023-06-14T12:28:42;7.97;;;5.97;;
52318;SDS011;38258;51.148;14.068;2023-06-14T12:31:11;7.10;;;5.97;;
52318;SDS011;38258;51.148;14.068;2023-06-14T12:33:38;6.90;;;5.50;;
52318;SDS011;38258;51.148;14.068;2023-06-14T12:36:06;7.35;;;5.10;;
52318;SDS011;38258;51.148;14.068;2023-06-14T12:38:34;5.78;;;4.68;;
52318;SDS011;38258;51.148;14.068;2023-06-14T12:41:02;6.95;;;4.68;;
52318;SDS011;38258;51.148;14.068;2023-06-14T12:43:29;5.72;;;4.53;;
52318;SDS011;38258;51.148;14.068;2023-06-14T12:45:56;5.82;;;4.90;;
52318;SDS011;38258;51.148;14.068;2023-06-14T12:48:22;7.10;;;4.78;;
52318;SDS011;38258;51.148;14.068;2023-06-14T12:50:49;6.63;;;4.72;;
52318;SDS011;38258;51.148;14.068;2023-06-14T12:53:16;5.55;;;4.50;;
52318;SDS011;38258;51.148;14.068;2023-06-14T12:55:42;4.88;;;4.32;;
52318;SDS011;38258;51.148;14.068;2023-06-14T12:58:11;4.95;;;4.40;;
52318;SDS011;38258;51.148;14.068;2023-06-14T13:00:39;7.50;;;4.40;;
52318;SDS011;38258;51.148;14.068;2023-06-14T13:03:06;6.13;;;4.13;;
52318;SDS011;38258;51.148;14.068;2023-06-14T13:05:32;6.25;;;4.40;;
52318;SDS011;38258;51.148;14.068;2023-06-14T13:07:59;6.25;;;4.68;;
52318;SDS011;38258;51.148;14.068;2023-06-14T13:10:26;6.55;;;4.90;;
52318;SDS011;38258;51.148;14.068;2023-06-14T13:12:53;5.50;;;3.97;;
52318;SDS011;38258;51.148;14.068;2023-06-14T13:15:21;5.20;;;4.22;;
52318;SDS011;38258;51.148;14.068;2023-06-14T13:17:48;5.63;;;4.40;;
52318;SDS011;38258;51.148;14.068;2023-06-14T13:20:15;7.03;;;4.88;;
52318;SDS011;38258;51.148;14.068;2023-06-14T13:22:42;5.97;;;4.60;;
52318;SDS011;38258;51.148;14.068;2023-06-14T13:25:09;5.45;;;4.88;;
52318;SDS011;38258;51.148;14.068;2023-06-14T13:27:35;4.90;;;4.32;;
52318;SDS011;38258;51.148;14.068;2023-06-14T13:30:02;7.88;;;4.22;;
52318;SDS011;38258;51.148;14.068;2023-06-14T13:32:32;4.85;;;4.15;;
52318;SDS011;38258;51.148;14.068;2023-06-14T13:34:59;7.40;;;4.60;;
52318;SDS011;38258;51.148;14.068;2023-06-14T13:37:26;5.70;;;4.60;;
52318;SDS011;38258;51.148;14.068;2023-06-14T13:39:52;5.65;;;4.80;;
52318;SDS011;38258;51.148;14.068;2023-06-14T13:42:19;5.93;;;4.50;;
52318;SDS011;38258;51.148;14.068;2023-06-14T13:44:46;6.30;;;4.75;;
52318;SDS011;38258;51.148;14.068;2023-06-14T13:47:12;6.70;;;4.68;;
52318;SDS011;38258;51.148;14.068;2023-06-14T13:49:40;6.25;;;4.40;;
52318;SDS011;38258;51.148;14.068;2023-06-14T13:52:07;5.13;;;4.53;;
52318;SDS011;38258;51.148;14.068;2023-06-14T13:54:34;6.85;;;4.45;;
52318;SDS011;38258;51.148;14.068;2023-06-14T13:57:01;4.60;;;3.90;;
52318;SDS011;38258;51.148;14.068;2023-06-14T13:59:27;5.38;;;4.25;;
52318;SDS011;38258;51.148;14.068;2023-06-14T14:01:54;6.28;;;4.00;;
52318;SDS011;38258;51.148;14.068;2023-06-14T14:04:21;5.40;;;4.13;;
52318;SDS011;38258;51.148;14.068;2023-06-14T14:06:49;6.05;;;3.95;;
52318;SDS011;38258;51.148;14.068;2023-06-14T14:09:15;7.95;;;4.20;;
52318;SDS011;38258;51.148;14.068;2023-06-14T14:11:42;4.30;;;3.90;;
52318;SDS011;38258;51.148;14.068;2023-06-14T14:14:09;5.95;;;4.10;;
52318;SDS011;38258;51.148;14.068;2023-06-14T14:16:36;4.97;;;4.38;;
52318;SDS011;38258;51.148;14.068;2023-06-14T14:19:03;7.15;;;4.40;;
52318;SDS011;38258;51.148;14.068;2023-06-14T14:21:30;6.13;;;4.88;;
52318;SDS011;38258;51.148;14.068;2023-06-14T14:23:58;5.50;;;4.20;;
52318;SDS011;38258;51.148;14.068;2023-06-14T14:26:25;5.25;;;4.20;;
52318;SDS011;38258;51.148;14.068;2023-06-14T14:28:52;6.53;;;4.05;;
52318;SDS011;38258;51.148;14.068;2023-06-14T14:31:19;5.40;;;3.92;;
52318;SDS011;38258;51.148;14.068;2023-06-14T14:33:46;4.70;;;4.07;;
52318;SDS011;38258;51.148;14.068;2023-06-14T14:36:13;4.55;;;4.10;;
52318;SDS011;38258;51.148;14.068;2023-06-14T14:38:39;7.15;;;4.40;;
52318;SDS011;38258;51.148;14.068;2023-06-14T14:41:07;6.15;;;4.57;;
52318;SDS011;38258;51.148;14.068;2023-06-14T14:43:34;5.28;;;4.28;;
52318;SDS011;38258;51.148;14.068;2023-06-14T14:46:01;5.18;;;4.35;;